Time;durP1;ratioP1;P1;durP2;ratioP2;P2;SDS_P1;SDS_P2;PMS_P1;PMS_P2;Temp;Humidity;BMP_temperature;BMP_pressure;BME280_temperature;BME280_humidity;BME280_pressure;Samples;Min_cycle;Max_cycle;Signal;HPM_P1;HPM_P2
2023/11/28 00:03:01;;;;;;;4.20;1.40;;;;;;;;;;5092823;28;20035;-72
2023/11/28 00:06:05;;;;;;;6.70;1.50;;;;;;;;;;5092433;28;20044;-71
2023/11/28 00:09:10;;;;;;;7.78;1.75;;;;;;;;;;5092336;28;20044;-72
2023/11/28 00:12:15;;;;;;;5.07;1.45;;;;;;;;;;5080029;28;20069;-71
2023/11/28 00:15:19;;;;;;;5.68;1.45;;;;;;;;;;5092337;28;20040;-71
2023/11/28 00:18:23;;;;;;;8.80;2.08;;;;;;;;;;5092349;28;20024;-72
2023/11/28 00:21:27;;;;;;;4.38;1.52;;;;;;;;;;5092244;28;20543;-72
2023/11/28 00:24:31;;;;;;;9.10;2.08;;;;;;;;;;5092270;28;20032;-71
2023/11/28 00:27:36;;;;;;;7.25;1.90;;;;;;;;;;5092082;28;20036;-71
2023/11/28 00:30:41;;;;;;;8.90;1.60;;;;;;;;;;5092310;28;20040;-71
2023/11/28 00:33:46;;;;;;;5.53;1.13;;;;;;;;;;5091918;28;20048;-71
2023/11/28 00:36:50;;;;;;;5.40;1.83;;;;;;;;;;5091858;28;20062;-71
2023/11/28 00:39:54;;;;;;;5.63;1.75;;;;;;;;;;5092107;28;20372;-71
2023/11/28 00:42:59;;;;;;;10.13;2.30;;;12.60;99.90;;;;;;5079392;28;20044;-70
2023/11/28 00:46:04;;;;;;;12.13;6.03;;;;;;;;;;5079142;28;20047;-71
2023/11/28 00:49:14;;;;;;;13.88;7.07;;;12.50;99.90;;;;;;5090957;28;20047;-71
2023/11/28 00:52:19;;;;;;;7.57;1.92;;;;;;;;;;5079150;28;20043;-71
2023/11/28 00:55:24;;;;;;;3.92;1.70;;;;;;;;;;5091556;28;20509;-71
2023/11/28 00:58:27;;;;;;;6.13;3.08;;;;;;;;;;5091669;28;20036;-72
2023/11/28 01:01:32;;;;;;;11.32;5.88;;;;;;;;;;5091730;28;20036;-71
2023/11/28 01:04:36;;;;;;;6.05;3.38;;;;;;;;;;5091354;28;20039;-71
2023/11/28 01:07:41;;;;;;;7.20;2.60;;;;;;;;;;5091251;28;20036;-70
2023/11/28 01:10:45;;;;;;;4.70;1.20;;;;;;;;;;5091539;28;20028;-71
2023/11/28 01:13:49;;;;;;;5.72;1.42;;;;;;;;;;5078714;28;20039;-71
2023/11/28 01:16:53;;;;;;;4.45;1.40;;;;;;;;;;5091263;28;20044;-71
2023/11/28 01:19:58;;;;;;;7.55;2.35;;;;;;;;;;5091385;28;20040;-71
2023/11/28 01:23:03;;;;;;;5.20;1.58;;;;;;;;;;5091279;28;20365;-71
2023/11/28 01:26:08;;;;;;;4.40;1.40;;;;;;;;;;5091273;28;20369;-71
2023/11/28 01:29:12;;;;;;;10.73;1.85;;;;;;;;;;5091332;28;20048;-71
2023/11/28 01:32:16;;;;;;;5.40;1.70;;;;;;;;;;5091247;28;20392;-70
2023/11/28 01:35:20;;;;;;;4.00;1.60;;;;;;;;;;5091201;28;20052;-70
2023/11/28 01:38:25;;;;;;;6.28;1.40;;;;;;;;;;5091231;28;20036;-70
2023/11/28 01:41:29;;;;;;;5.28;1.60;;;;;;;;;;5091024;28;20028;-70
2023/11/28 01:44:33;;;;;;;4.40;1.52;;;;;;;;;;5078674;28;20032;-71
2023/11/28 01:47:38;;;;;;;2.60;1.40;;;;;;;;;;5078593;28;20039;-71
2023/11/28 01:50:43;;;;;;;4.32;1.70;;;13.50;99.90;;;;;;5090982;28;20036;-71
2023/11/28 01:53:48;;;;;;;4.13;1.70;;;;;;;;;;5078549;28;20051;-71
2023/11/28 01:56:52;;;;;;;10.23;2.65;;;;;;;;;;5091139;28;20036;-71
2023/11/28 01:59:57;;;;;;;7.80;2.60;;;;;;;;;;5080744;28;20047;-71
2023/11/28 02:03:03;;;;;;;4.88;2.30;;;12.50;99.90;;;;;;5095148;28;20036;-71
2023/11/28 02:06:09;;;;;;;8.70;2.65;;;12.70;99.90;;;;;;5094892;28;20050;-71
2023/11/28 02:09:16;;;;;;;5.78;1.80;;;;;;;;;;5082587;28;20051;-71
2023/11/28 02:12:21;;;;;;;10.70;2.28;;;;;;;;;;5094910;28;20032;-71
2023/11/28 02:15:43;;;;;;;10.68;2.65;;;12.40;99.90;;;;;;5082058;28;20047;-71
2023/11/28 02:18:47;;;;;;;13.27;2.17;;;;;;;;;;5082259;28;20047;-71
2023/11/28 02:21:51;;;;;;;18.92;2.90;;;;;;;;;;5094793;28;20031;-71
2023/11/28 02:24:58;;;;;;;14.98;2.72;;;12.60;99.90;;;;;;5081880;28;20051;-71
2023/11/28 02:28:03;;;;;;;18.77;3.47;;;;;;;;;;5094594;28;20051;-71
2023/11/28 02:31:09;;;;;;;29.33;4.32;;;;;;;;;;5081815;28;20043;-71
2023/11/28 02:34:14;;;;;;;28.85;3.53;;;;;;;;;;5081539;28;20051;-72
2023/11/28 02:37:18;;;;;;;25.40;4.03;;;;;;;;;;5094536;28;20051;-72
2023/11/28 02:40:22;;;;;;;11.75;2.45;;;;;;;;;;5094471;28;20047;-71
2023/11/28 02:43:26;;;;;;;20.17;3.22;;;;;;;;;;5094374;28;20043;-71
2023/11/28 02:46:30;;;;;;;15.32;2.95;;;;;;;;;;5094004;28;20196;-71
2023/11/28 02:49:35;;;;;;;16.80;3.00;;;;;;;;;;5094343;28;20495;-71
2023/11/28 02:52:40;;;;;;;14.27;3.13;;;;;;;;;;5094131;28;20047;-71
2023/11/28 02:55:45;;;;;;;11.25;2.88;;;;;;;;;;5094001;28;20055;-71
2023/11/28 02:58:50;;;;;;;18.77;4.00;;;;;;;;;;5094150;28;20498;-70
2023/11/28 03:01:57;;;;;;;11.90;2.38;;;;;;;;;;5081317;28;20051;-71
2023/11/28 03:05:02;;;;;;;15.00;3.15;;;;;;;;;;5093749;28;20032;-70
2023/11/28 03:08:09;;;;;;;14.60;3.40;;;13.00;99.90;;;;;;5093458;28;20056;-71
2023/11/28 03:11:14;;;;;;;19.05;3.33;;;;;;;;;;5080035;28;20055;-70
2023/11/28 03:14:19;;;;;;;14.18;3.25;;;;;;;;;;5093273;28;20130;-70
2023/11/28 03:17:23;;;;;;;20.08;3.67;;;;;;;;;;5081523;28;20039;-70
2023/11/28 03:20:28;;;;;;;15.18;3.10;;;;;;;;;;5093864;28;20050;-71
2023/11/28 03:23:32;;;;;;;21.55;3.13;;;;;;;;;;5069672;28;20383;-70
2023/11/28 03:26:36;;;;;;;16.55;3.67;;;;;;;;;;5081788;28;20039;-71
2023/11/28 03:29:41;;;;;;;23.75;3.42;;;;;;;;;;5093680;28;20047;-70
2023/11/28 03:32:46;;;;;;;24.35;3.70;;;;;;;;;;5080844;28;20043;-70
2023/11/28 03:35:50;;;;;;;26.02;3.05;;;;;;;;;;5093293;28;20043;-70
2023/11/28 03:38:54;;;;;;;16.52;3.33;;;;;;;;;;5080839;28;20495;-71
2023/11/28 03:41:58;;;;;;;15.50;2.85;;;;;;;;;;5093207;28;20043;-70
2023/11/28 03:45:07;;;;;;;12.73;2.50;;;;;;;;;;5080650;28;20047;-70
2023/11/28 03:48:12;;;;;;;15.75;2.95;;;;;;;;;;5092921;28;20035;-70
2023/11/28 03:51:16;;;;;;;16.38;2.40;;;;;;;;;;5092738;28;20039;-71
2023/11/28 03:54:20;;;;;;;19.90;2.63;;;;;;;;;;5092659;28;20051;-70
2023/11/28 03:57:25;;;;;;;10.05;2.33;;;;;;;;;;5080467;28;20039;-71
2023/11/28 04:00:29;;;;;;;14.77;3.35;;;;;;;;;;5092952;28;20058;-70
2023/11/28 04:03:34;;;;;;;11.98;2.30;;;;;;;;;;5080311;28;20055;-70
2023/11/28 04:06:38;;;;;;;18.23;2.42;;;;;;;;;;5080085;28;20043;-70
2023/11/28 04:09:43;;;;;;;18.73;2.40;;;;;;;;;;5052116;28;20048;-71
2023/11/28 04:12:47;;;;;;;14.43;2.33;;;;;;;;;;5063013;28;20052;-70
2023/11/28 04:15:51;;;;;;;18.35;2.40;;;;;;;;;;5051383;28;20048;-71
2023/11/28 04:18:56;;;;;;;17.25;2.30;;;;;;;;;;5051998;28;20055;-71
2023/11/28 04:22:00;;;;;;;26.25;3.35;;;;;;;;;;5052074;28;20040;-71
2023/11/28 04:25:07;;;;;;;13.32;2.38;;;;;;;;;;5051176;28;20044;-71
2023/11/28 04:28:12;;;;;;;16.23;3.05;;;;;;;;;;5062781;28;20048;-71
2023/11/28 04:31:20;;;;;;;18.65;3.60;;;13.40;99.90;;;;;;5051983;28;20484;-70
2023/11/28 04:34:27;;;;;;;;;;;13.60;99.90;;;;;;5051310;28;20551;-70
2023/11/28 04:37:31;;;;;;;17.42;3.03;;;;;;;;;;5051062;28;19908;-70
2023/11/28 04:40:36;;;;;;;12.65;3.05;;;;;;;;;;5051063;28;20040;-70
2023/11/28 04:43:41;;;;;;;27.08;3.50;;;;;;;;;;5050916;28;20040;-70
2023/11/28 04:46:45;;;;;;;16.90;3.00;;;;;;;;;;5050684;28;20044;-71
2023/11/28 04:49:50;;;;;;;23.20;3.60;;;;;;;;;;5051554;28;20504;-71
2023/11/28 04:52:54;;;;;;;19.13;4.28;;;;;;;;;;5051424;28;20483;-73
2023/11/28 04:55:59;;;;;;;10.40;2.80;;;;;;;;;;5051360;28;20044;-73
2023/11/28 04:59:03;;;;;;;14.75;3.65;;;;;;;;;;5050492;28;20040;-73
2023/11/28 05:02:09;;;;;;;13.63;3.20;;;;;;;;;;5050479;28;20047;-73
2023/11/28 05:05:14;;;;;;;14.35;3.17;;;;;;;;;;5062055;28;20381;-72
2023/11/28 05:08:18;;;;;;;16.33;3.85;;;;;;;;;;5066252;28;20096;-72
2023/11/28 05:11:23;;;;;;;20.00;4.10;;;;;;;;;;5079037;28;20039;-72
2023/11/28 05:14:28;;;;;;;18.95;3.65;;;;;;;;;;5078567;28;20411;-73
2023/11/28 05:17:32;;;;;;;16.13;3.83;;;;;;;;;;5091473;28;20055;-72
2023/11/28 05:20:36;;;;;;;15.13;3.70;;;;;;;;;;5079010;28;20047;-72
2023/11/28 05:23:40;;;;;;;20.73;4.10;;;;;;;;;;5079005;28;20396;-72
2023/11/28 05:26:45;;;;;;;11.80;2.88;;;;;;;;;;5078759;28;20043;-72
2023/11/28 05:29:49;;;;;;;12.27;2.40;;;;;;;;;;5091045;28;20035;-72
2023/11/28 05:32:54;;;;;;;6.50;1.67;;;;;;;;;;5091334;28;20380;-72
2023/11/28 05:36:00;;;;;;;4.88;1.73;;;;;;;;;;5078480;28;20044;-72
2023/11/28 05:39:04;;;;;;;6.90;1.80;;;;;;;;;;5078853;28;20032;-73
2023/11/28 05:42:09;;;;;;;6.32;1.58;;;;;;;;;;5078486;28;20032;-71
2023/11/28 05:45:13;;;;;;;8.35;1.73;;;;;;;;;;5078656;28;20040;-72
2023/11/28 05:48:17;;;;;;;7.65;1.75;;;;;;;;;;5091246;28;20036;-72
2023/11/28 05:51:22;;;;;;;4.38;1.45;;;;;;;;;;5078695;28;20036;-72
2023/11/28 05:54:26;;;;;;;8.38;2.15;;;;;;;;;;5078467;28;20052;-72
2023/11/28 05:57:30;;;;;;;8.48;1.90;;;;;;;;;;5091109;28;20032;-72
2023/11/28 06:00:35;;;;;;;10.05;2.15;;;14.70;99.90;;;;;;5090975;28;20472;-72
2023/11/28 06:03:39;;;;;;;14.27;5.78;;;;;;;;;;5078494;28;20070;-72
2023/11/28 06:06:43;;;;;;;14.63;3.00;;;;;;;;;;5078290;28;20490;-72
2023/11/28 06:09:48;;;;;;;16.05;2.17;;;;;;;;;;5090264;28;20055;-72
2023/11/28 06:12:55;;;;;;;10.35;3.13;;;;;;;;;;5078351;28;20039;-72
2023/11/28 06:16:07;;;;;;;10.32;3.00;;;13.20;99.90;;;;;;5090576;28;20039;-72
2023/11/28 06:19:17;;;;;;;10.02;2.63;;;13.10;99.90;;;;;;5090205;28;20063;-72
2023/11/28 06:22:22;;;;;;;8.85;2.35;;;;;;;;;;5078451;28;20047;-72
2023/11/28 06:25:26;;;;;;;14.13;2.47;;;;;;;;;;5090851;28;20365;-71
2023/11/28 06:28:30;;;;;;;7.15;2.05;;;;;;;;;;5090817;28;20047;-71
2023/11/28 06:31:35;;;;;;;7.95;2.33;;;;;;;;;;5090827;28;20036;-71
2023/11/28 06:34:39;;;;;;;8.55;1.92;;;;;;;;;;5090084;28;20044;-65
2023/11/28 06:37:46;;;;;;;12.15;2.50;;;;;;;;;;5077770;28;20036;-66
2023/11/28 06:40:51;;;;;;;8.23;2.33;;;;;;;;;;5090576;28;20055;-66
2023/11/28 06:43:56;;;;;;;24.00;7.53;;;;;;;;;;5090216;28;20036;-66
2023/11/28 06:47:00;;;;;;;15.32;3.03;;;;;;;;;;5079815;28;20055;-67
2023/11/28 06:50:05;;;;;;;17.95;3.58;;;;;;;;;;5093917;28;20039;-66
2023/11/28 06:53:09;;;;;;;13.27;3.05;;;;;;;;;;5093587;28;20051;-66
2023/11/28 06:56:14;;;;;;;13.00;2.60;;;;;;;;;;5093733;28;20047;-65
2023/11/28 06:59:18;;;;;;;13.93;3.10;;;;;;;;;;5093685;28;20043;-66
2023/11/28 07:02:22;;;;;;;18.48;3.50;;;;;;;;;;5093770;28;20047;-66
2023/11/28 07:05:27;;;;;;;19.98;4.07;;;;;;;;;;5080761;28;20039;-66
2023/11/28 07:08:32;;;;;;;19.00;3.38;;;;;;;;;;5093510;28;20055;-66
2023/11/28 07:11:37;;;;;;;27.15;3.78;;;;;;;;;;5093236;28;20039;-65
2023/11/28 07:14:41;;;;;;;25.33;4.22;;;;;;;;;;5092428;28;20118;-65
2023/11/28 07:17:45;;;;;;;24.67;3.83;;;;;;;;;;5093421;28;20054;-65
2023/11/28 07:20:50;;;;;;;30.00;4.95;;;;;;;;;;5093185;28;20506;-64
2023/11/28 07:23:54;;;;;;;13.45;3.80;;;;;;;;;;5093132;28;20736;-66
2023/11/28 07:26:58;;;;;;;15.90;3.35;;;;;;;;;;5093010;28;20028;-67
2023/11/28 07:30:06;;;;;;;23.70;4.47;;;;;;;;;;5092966;28;20051;-66
2023/11/28 07:33:10;;;;;;;18.88;4.50;;;;;;;;;;5093089;28;20044;-65
2023/11/28 07:36:14;;;;;;;20.63;3.60;;;;;;;;;;5093072;28;20039;-65
2023/11/28 07:39:19;;;;;;;19.40;3.58;;;;;;;;;;5093008;28;20039;-65
2023/11/28 07:42:23;;;;;;;14.60;3.60;;;;;;;;;;5093521;28;20059;-64
2023/11/28 07:45:29;;;;;;;22.80;4.03;;;;;;;;;;5092840;28;20043;-65
2023/11/28 07:48:33;;;;;;;15.85;2.95;;;;;;;;;;5092920;28;20047;-66
2023/11/28 07:51:37;;;;;;;15.23;3.20;;;;;;;;;;5093113;28;20495;-65
2023/11/28 07:54:42;;;;;;;15.20;3.60;;;;;;;;;;5092675;28;20055;-66
2023/11/28 07:57:46;;;;;;;20.67;4.05;;;;;;;;;;5092561;28;20391;-65
2023/11/28 08:00:51;;;;;;;17.95;3.47;;;;;;;;;;5092317;28;20067;-66
2023/11/28 08:03:55;;;;;;;17.00;3.28;;;;;;;;;;5092279;28;20491;-67
2023/11/28 08:07:00;;;;;;;24.65;3.65;;;;;;;;;;5079969;28;20391;-66
2023/11/28 08:10:11;;;;;;;20.73;3.50;;;;;;;;;;5092428;28;20043;-65
2023/11/28 08:13:17;;;;;;;21.48;3.85;;;;;;;;;;5092361;28;20050;-66
2023/11/28 08:16:23;;;;;;;16.02;2.60;;;;;;;;;;5092188;28;20407;-67
2023/11/28 08:19:27;;;;;;;12.10;2.60;;;;;;;;;;5092190;28;20043;-74
2023/11/28 08:22:31;;;;;;;13.25;3.50;;;;;;;;;;5092172;28;20047;-69
2023/11/28 08:25:36;;;;;;;15.18;2.60;;;;;;;;;;5092112;28;20051;-65
2023/11/28 08:28:40;;;;;;;17.17;4.03;;;;;;;;;;5079287;28;20043;-69
2023/11/28 08:31:44;;;;;;;13.88;3.42;;;;;;;;;;5091781;28;20048;-69
2023/11/28 08:34:48;;;;;;;27.60;5.60;;;;;;;;;;5078807;28;20051;-68
2023/11/28 08:37:52;;;;;;;11.77;3.35;;;;;;;;;;5079068;28;20357;-68
2023/11/28 08:40:59;;;;;;;15.93;3.90;;;;;;;;;;5091949;28;20063;-68
2023/11/28 08:44:03;;;;;;;22.83;3.45;;;;;;;;;;5091573;28;20035;-69
2023/11/28 08:47:07;;;;;;;19.02;3.25;;;;;;;;;;5091750;28;20043;-67
2023/11/28 08:50:12;;;;;;;22.00;3.75;;;;;;;;;;5091956;28;20146;-68
2023/11/28 08:53:17;;;;;;;20.85;3.38;;;;;;;;;;5091694;28;20046;-67
2023/11/28 08:56:23;;;;;;;25.10;4.35;;;;;;;;;;5091868;28;20051;-67
2023/11/28 08:59:27;;;;;;;20.27;3.45;;;;;;;;;;5079320;28;20039;-67
2023/11/28 09:02:31;;;;;;;19.85;3.33;;;;;;;;;;5091775;28;20502;-68
2023/11/28 09:05:36;;;;;;;17.42;2.50;;;;;;;;;;5091271;28;20043;-69
2023/11/28 09:08:40;;;;;;;21.70;3.40;;;;;;;;;;5090617;28;20380;-66
2023/11/28 09:11:45;;;;;;;23.02;3.40;;;;;;;;;;5091588;28;20043;-66
2023/11/28 09:14:50;;;;;;;22.20;3.60;;;;;;;;;;5091152;28;20058;-67
2023/11/28 09:17:54;;;;;;;24.38;3.30;;;;;;;;;;5091426;28;20058;-67
2023/11/28 09:20:58;;;;;;;24.88;4.15;;;;;;;;;;5091441;28;20046;-66
2023/11/28 09:24:03;;;;;;;19.58;3.95;;;;;;;;;;5091294;28;20051;-67
2023/11/28 09:27:10;;;;;;;26.98;3.55;;;;;;;;;;5078898;28;20364;-67
2023/11/28 09:30:15;;;;;;;19.30;3.70;;;;;;;;;;5091144;28;20649;-67
2023/11/28 09:33:19;;;;;;;22.50;3.72;;;;;;;;;;5091058;28;20051;-67
2023/11/28 09:36:24;;;;;;;23.77;4.18;;;;;;;;;;5090865;28;20047;-67
2023/11/28 09:39:28;;;;;;;19.60;5.55;;;;;;;;;;5090727;28;20047;-67
2023/11/28 09:42:37;;;;;;;19.40;3.20;;;;;;;;;;5090817;28;20047;-68
2023/11/28 09:45:42;;;;;;;26.30;3.90;;;;;;;;;;5091028;28;20051;-68
2023/11/28 09:48:46;;;;;;;19.83;3.80;;;;;;;;;;5090933;28;20039;-68
2023/11/28 09:51:52;;;;;;;18.95;2.65;;;;;;;;;;5091186;28;20400;-68
2023/11/28 09:55:00;;;;;;;20.77;3.75;;;;;;;;;;5090712;28;20043;-67
2023/11/28 09:58:05;;;;;;;17.83;2.75;;;;;;;;;;5090809;28;20059;-67
2023/11/28 10:01:09;;;;;;;18.10;3.78;;;;;;;;;;5090829;28;20076;-67
2023/11/28 10:04:16;;;;;;;24.40;3.47;;;;;;;;;;5090585;28;20039;-67
2023/11/28 10:07:27;;;;;;;24.02;3.53;;;;;;;;;;5090885;28;20059;-66
2023/11/28 10:10:36;;;;;;;22.50;3.65;;;15.40;99.90;;;;;;5090858;28;20523;-68
2023/11/28 10:13:40;;;;;;;20.67;3.17;;;;;;;;;;5090624;28;20074;-67
2023/11/28 10:16:46;;;;;;;20.95;3.15;;;;;;;;;;5078396;28;20404;-66
2023/11/28 10:19:50;;;;;;;18.92;3.25;;;;;;;;;;5090959;28;20051;-67
2023/11/28 10:22:55;;;;;;;26.65;4.80;;;;;;;;;;5094798;28;20039;-66
2023/11/28 10:26:00;;;;;;;23.42;3.50;;;;;;;;;;5094593;28;20506;-67
2023/11/28 10:29:07;;;;;;;21.40;3.47;;;;;;;;;;5094364;28;20043;-68
2023/11/28 10:32:11;;;;;;;20.25;3.90;;;;;;;;;;5094474;28;20525;-69
2023/11/28 10:35:16;;;;;;;19.33;4.30;;;;;;;;;;5093792;28;20126;-67
2023/11/28 10:38:20;;;;;;;19.70;3.40;;;;;;;;;;5093954;28;20150;-66
2023/11/28 10:41:31;;;;;;;24.52;3.50;;;;;;;;;;5094029;28;20419;-66
2023/11/28 10:44:36;;;;;;;26.38;3.50;;;;;;;;;;5094187;28;20063;-67
2023/11/28 10:47:42;;;;;;;18.70;3.63;;;;;;;;;;5094065;28;20491;-67
2023/11/28 10:50:46;;;;;;;23.75;4.78;;;;;;;;;;5094088;28;20039;-67
2023/11/28 10:53:57;;;;;;;18.55;3.15;;;;;;;;;;5093685;28;20055;-66
2023/11/28 10:57:04;;;;;;;19.38;3.03;;;;;;;;;;5094023;28;20055;-67
2023/11/28 11:00:09;;;;;;;27.77;4.72;;;;;;;;;;5081666;28;20499;-66
2023/11/28 11:03:15;;;;;;;18.50;3.38;;;;;;;;;;5093427;28;20050;-68
2023/11/28 11:06:20;;;;;;;17.52;3.45;;;;;;;;;;5093398;28;20062;-69
2023/11/28 11:09:25;;;;;;;20.35;3.50;;;;;;;;;;5091875;28;20055;-70
2023/11/28 11:12:31;;;;;;;21.00;3.35;;;;;;;;;;5092585;28;20047;-67
2023/11/28 11:15:40;;;;;;;23.50;4.80;;;;;;;;;;5092991;28;20051;-67
2023/11/28 11:18:46;;;;;;;29.75;5.50;;;;;;;;;;5081085;28;20039;-66
2023/11/28 11:21:59;;;;;;;27.58;4.10;;;;;;;;;;5080952;28;20047;-66
2023/11/28 11:25:06;;;;;;;26.67;4.03;;;;;;;;;;5093110;28;20048;-65
2023/11/28 11:28:11;;;;;;;35.55;4.43;;;;;;;;;;5080853;28;20051;-65
2023/11/28 11:31:15;;;;;;;22.25;4.07;;;;;;;;;;5093077;28;20391;-65
2023/11/28 11:34:38;;;;;;;39.05;4.70;;;;;;;;;;5092707;28;20059;-66
2023/11/28 11:37:43;;;;;;;25.92;5.13;;;;;;;;;;5093354;28;20062;-66
2023/11/28 11:40:48;;;;;;;24.27;4.00;;;;;;;;;;5092734;28;20122;-64
2023/11/28 11:43:53;;;;;;;31.05;4.57;;;;;;;;;;5092795;28;20047;-65
2023/11/28 11:47:02;;;;;;;36.47;5.45;;;;;;;;;;5092651;28;20043;-64
2023/11/28 11:50:07;;;;;;;28.23;5.32;;;;;;;;;;5092885;28;20050;-65
2023/11/28 11:53:12;;;;;;;22.00;5.10;;;;;;;;;;5092494;28;20035;-66
2023/11/28 11:56:18;;;;;;;27.80;5.15;;;;;;;;;;5092490;28;20055;-66
2023/11/28 11:59:25;;;;;;;31.23;4.53;;;;;;;;;;5092728;28;20047;-67
2023/11/28 12:02:40;;;;;;;32.95;4.90;;;;;;;;;;5092613;28;20387;-66
2023/11/28 12:05:57;;;;;;;19.58;4.72;;;;;;;;;;5079579;28;20044;-67
2023/11/28 12:09:01;;;;;;;32.20;5.03;;;;;;;;;;5091698;28;20055;-66
2023/11/28 12:12:06;;;;;;;24.27;4.10;;;;;;;;;;5092446;28;20043;-66
2023/11/28 12:15:10;;;;;;;29.48;4.65;;;;;;;;;;5091448;28;20067;-66
2023/11/28 12:18:14;;;;;;;26.48;4.68;;;;;;;;;;5092457;28;20042;-67
2023/11/28 12:21:19;;;;;;;27.80;5.00;;;;;;;;;;5092088;28;20395;-67
2023/11/28 12:24:24;;;;;;;29.85;4.97;;;;;;;;;;5092285;28;20062;-66
2023/11/28 12:27:29;;;;;;;28.75;5.28;;;;;;;;;;5091835;28;20042;-67
2023/11/28 12:30:34;;;;;;;24.67;4.32;;;;;;;;;;5092249;28;20051;-67
2023/11/28 12:33:39;;;;;;;26.27;4.63;;;;;;;;;;5091707;28;20042;-67
2023/11/28 12:36:43;;;;;;;22.63;4.60;;;;;;;;;;5092072;28;20502;-67
2023/11/28 12:39:48;;;;;;;22.13;3.75;;;;;;;;;;5091808;28;20047;-67
2023/11/28 12:42:52;;;;;;;32.60;7.30;;;;;;;;;;5091961;28;20392;-68
2023/11/28 12:45:57;;;;;;;29.80;5.55;;;;;;;;;;5091528;28;20035;-67
2023/11/28 12:49:05;;;;;;;26.08;4.97;;;;;;;;;;5091872;28;20387;-68
2023/11/28 12:52:09;;;;;;;35.78;5.40;;;;;;;;;;5091624;28;20684;-66
2023/11/28 12:55:13;;;;;;;24.73;4.78;;;;;;;;;;5091372;28;20051;-66
2023/11/28 12:58:21;;;;;;;30.55;5.10;;;;;;;;;;5091752;28;20047;-66
2023/11/28 13:01:27;;;;;;;38.95;4.82;;;;;;;;;;5091731;28;20255;-66
2023/11/28 13:04:31;;;;;;;31.42;4.65;;;;;;;;;;5091716;28;20145;-67
2023/11/28 13:07:35;;;;;;;25.80;4.53;;;;;;;;;;5091488;28;20051;-67
2023/11/28 13:10:42;;;;;;;29.10;5.47;;;;;;;;;;5091251;28;20237;-67
2023/11/28 13:13:47;;;;;;;21.55;4.88;;;;;;;;;;5090854;28;20042;-68
2023/11/28 13:16:51;;;;;;;27.08;5.18;;;;;;;;;;5091411;28;20047;-65
2023/11/28 13:19:56;;;;;;;26.02;4.72;;;;;;;;;;5091420;28;20043;-67
2023/11/28 13:23:00;;;;;;;37.47;6.65;;;;;;;;;;5091814;28;20059;-67
2023/11/28 13:26:05;;;;;;;34.63;5.25;;;;;;;;;;5091471;28;20051;-66
2023/11/28 13:29:09;;;;;;;23.48;5.05;;;;;;;;;;5091512;28;20459;-66
2023/11/28 13:32:14;;;;;;;26.70;6.05;;;;;;;;;;5091300;28;20043;-67
2023/11/28 13:35:18;;;;;;;27.13;4.97;;;;;;;;;;5091120;28;20055;-67
2023/11/28 13:38:30;;;;;;;22.38;4.78;;;;;;;;;;5091217;28;20502;-68
2023/11/28 13:41:34;;;;;;;21.50;4.13;;;;;;;;;;5091079;28;20051;-66
2023/11/28 13:44:39;;;;;;;24.77;4.88;;;;;;;;;;5090994;28;20047;-68
2023/11/28 13:47:45;;;;;;;25.70;4.20;;;;;;;;;;5078257;28;20416;-67
2023/11/28 13:50:49;;;;;;;16.02;3.22;;;;;;;;;;5078284;28;20043;-69
2023/11/28 13:53:55;;;;;;;18.48;4.72;;;;;;;;;;5090792;28;20108;-69
2023/11/28 13:57:02;;;;;;;15.32;4.38;;;;;;;;;;5094647;28;20057;-70
2023/11/28 14:00:09;;;;;;;14.93;5.05;;;;;;;;;;5095321;28;20573;-68
2023/11/28 14:03:13;;;;;;;16.52;5.07;;;;;;;;;;5094912;28;20070;-68
2023/11/28 14:06:17;;;;;;;26.73;7.03;;;;;;;;;;5094774;28;20047;-68
2023/11/28 14:09:22;;;;;;;22.98;5.68;;;;;;;;;;5094558;28;20059;-68
2023/11/28 14:12:27;;;;;;;18.75;6.53;;;;;;;;;;5094848;28;20046;-68
2023/11/28 14:15:32;;;;;;;19.70;6.82;;;;;;;;;;5094429;28;20051;-67
2023/11/28 14:18:36;;;;;;;21.45;6.90;;;;;;;;;;5094714;28;20051;-67
2023/11/28 14:21:41;;;;;;;18.92;6.82;;;;;;;;;;5094896;28;20599;-65
2023/11/28 14:24:45;;;;;;;26.52;8.32;;;;;;;;;;5094737;28;20227;-67
2023/11/28 14:27:52;;;;;;;21.95;8.15;;;;;;;;;;5094688;28;20070;-66
2023/11/28 14:30:58;;;;;;;20.15;5.75;;;;;;;;;;5094547;28;20055;-67
2023/11/28 14:34:02;;;;;;;23.63;6.55;;;;;;;;;;5094396;28;20039;-68
2023/11/28 14:37:07;;;;;;;25.42;8.38;;;14.80;99.90;;;;;;5094155;28;20047;-66
2023/11/28 14:40:13;;;;;;;29.65;7.47;;;;;;;;;;5094022;28;20597;-67
2023/11/28 14:43:18;;;;;;;22.88;6.65;;;;;;;;;;5094044;28;20039;-65
2023/11/28 14:46:22;;;;;;;18.23;8.10;;;;;;;;;;5094423;28;20043;-67
2023/11/28 14:49:29;;;;;;;20.48;6.43;;;;;;;;;;5093661;28;20039;-66
2023/11/28 14:52:34;;;;;;;21.98;7.63;;;;;;;;;;5093894;28;20039;-67
2023/11/28 14:55:40;;;;;;;17.90;6.50;;;;;;;;;;5093720;28;20062;-66
2023/11/28 14:58:44;;;;;;;17.63;4.72;;;;;;;;;;5093694;28;20043;-66
2023/11/28 15:01:48;;;;;;;10.00;3.40;;;;;;;;;;5093957;28;20043;-66
2023/11/28 15:04:53;;;;;;;16.63;3.95;;;;;;;;;;5093756;28;20043;-68
2023/11/28 15:07:59;;;;;;;12.98;4.05;;;;;;;;;;5092320;28;20066;-67
2023/11/28 15:11:04;;;;;;;16.13;3.03;;;;;;;;;;5093898;28;20043;-68
2023/11/28 15:14:08;;;;;;;11.15;4.25;;;;;;;;;;5093494;28;20055;-69
2023/11/28 15:17:13;;;;;;;24.17;4.95;;;;;;;;;;5093316;28;20157;-68
2023/11/28 15:20:18;;;;;;;19.30;4.40;;;;;;;;;;5093490;28;20043;-68
2023/11/28 15:23:22;;;;;;;13.05;3.90;;;;;;;;;;5092588;28;20442;-68
2023/11/28 15:26:26;;;;;;;17.52;4.40;;;;;;;;;;5092490;28;20067;-67
2023/11/28 15:29:31;;;;;;;18.77;3.85;;;;;;;;;;5092863;28;20057;-68
2023/11/28 15:32:35;;;;;;;12.68;4.22;;;;;;;;;;5093386;28;20039;-68
2023/11/28 15:35:40;;;;;;;18.10;5.10;;;;;;;;;;5092948;28;20055;-67
2023/11/28 15:38:44;;;;;;;18.85;6.38;;;;;;;;;;5093133;28;20106;-68
2023/11/28 15:41:49;;;;;;;18.05;4.82;;;;;;;;;;5092879;28;20050;-67
2023/11/28 15:44:54;;;;;;;18.85;5.57;;;;;;;;;;5092488;28;20043;-67
2023/11/28 15:48:00;;;;;;;15.88;5.53;;;;;;;;;;5092549;28;20047;-68
2023/11/28 15:51:05;;;;;;;19.70;6.10;;;;;;;;;;5092661;28;20039;-68
2023/11/28 15:54:10;;;;;;;20.58;5.50;;;;;;;;;;5092592;28;20050;-68
2023/11/28 15:57:14;;;;;;;21.00;7.07;;;;;;;;;;5092581;28;20071;-68
2023/11/28 16:00:19;;;;;;;23.40;8.57;;;;;;;;;;5092643;28;20035;-68
2023/11/28 16:03:23;;;;;;;21.80;7.60;;;;;;;;;;5092223;28;20047;-68
2023/11/28 16:06:28;;;;;;;30.50;7.80;;;;;;;;;;5090587;28;20039;-68
2023/11/28 16:09:35;;;;;;;20.88;7.35;;;;;;;;;;5091010;28;20063;-67
2023/11/28 16:12:39;;;;;;;22.05;8.02;;;;;;;;;;5092165;28;20039;-68
2023/11/28 16:15:44;;;;;;;25.05;7.80;;;;;;;;;;5091649;28;20542;-66
2023/11/28 16:18:48;;;;;;;21.10;7.07;;;;;;;;;;5079146;28;20372;-67
2023/11/28 16:21:52;;;;;;;24.58;8.63;;;;;;;;;;5091906;28;20058;-67
2023/11/28 16:24:57;;;;;;;26.75;9.55;;;;;;;;;;5091979;28;20364;-67
2023/11/28 16:28:02;;;;;;;21.00;9.50;;;;;;;;;;5091860;28;20043;-67
2023/11/28 16:31:06;;;;;;;24.38;10.30;;;;;;;;;;5091840;28;20039;-67
2023/11/28 16:34:11;;;;;;;19.65;8.88;;;;;;;;;;5079409;28;20051;-65
2023/11/28 16:37:15;;;;;;;16.77;5.80;;;;;;;;;;5091884;28;20059;-66
2023/11/28 16:40:19;;;;;;;19.58;6.80;;;;;;;;;;5091742;28;20439;-65
2023/11/28 16:43:24;;;;;;;23.55;9.98;;;;;;;;;;5091490;28;20043;-65
2023/11/28 16:46:28;;;;;;;31.45;11.93;;;;;;;;;;5091789;28;20062;-64
2023/11/28 16:49:33;;;;;;;31.58;9.05;;;;;;;;;;5091527;28;20047;-65
2023/11/28 16:52:37;;;;;;;21.73;7.57;;;;;;;;;;5091611;28;20047;-64
2023/11/28 16:55:44;;;;;;;20.52;6.90;;;;;;;;;;5091485;28;20055;-64
2023/11/28 16:58:48;;;;;;;18.05;5.60;;;;;;;;;;5091508;28;20039;-66
2023/11/28 17:01:52;;;;;;;21.10;6.60;;;;;;;;;;5091354;28;20494;-65
2023/11/28 17:04:56;;;;;;;19.50;6.60;;;;;;;;;;5091214;28;20470;-66
2023/11/28 17:08:01;;;;;;;37.25;15.07;;;;;;;;;;5091342;28;20047;-66
2023/11/28 17:11:05;;;;;;;34.42;18.45;;;;;;;;;;5091388;28;20514;-65
2023/11/28 17:14:10;;;;;;;42.33;19.75;;;;;;;;;;5091310;28;20039;-65
2023/11/28 17:17:14;;;;;;;32.90;13.50;;;;;;;;;;5091105;28;20059;-65
2023/11/28 17:20:21;;;;;;;25.50;6.53;;;13.60;99.90;;;;;;5091015;28;20031;-65
2023/11/28 17:23:26;;;;;;;30.50;10.07;;;;;;;;;;5091205;28;20349;-66
2023/11/28 17:26:30;;;;;;;25.33;11.43;;;;;;;;;;5078398;28;20506;-66
2023/11/28 17:29:35;;;;;;;20.98;6.05;;;;;;;;;;5090790;28;20114;-66
2023/11/28 17:32:39;;;;;;;23.70;8.45;;;;;;;;;;5078665;28;20053;-67
2023/11/28 17:35:44;;;;;;;21.42;9.00;;;;;;;;;;5091325;28;20067;-66
2023/11/28 17:38:49;;;;;;;29.10;14.68;;;;;;;;;;5090864;28;20035;-66
2023/11/28 17:41:54;;;;;;;31.77;7.80;;;;;;;;;;5091243;28;20051;-67
2023/11/28 17:44:58;;;;;;;15.35;7.45;;;;;;;;;;5091256;28;20392;-67
2023/11/28 17:48:03;;;;;;;21.30;9.25;;;;;;;;;;5090942;28;20059;-65
2023/11/28 17:51:07;;;;;;;25.65;12.90;;;;;;;;;;5091132;28;20364;-64
2023/11/28 17:54:12;;;;;;;29.67;14.73;;;;;;;;;;5090808;28;20062;-65
2023/11/28 17:57:16;;;;;;;37.17;16.60;;;;;;;;;;5090966;28;20051;-65
2023/11/28 18:00:21;;;;;;;28.30;15.57;;;13.50;99.90;;;;;;5091079;28;20039;-66
2023/11/28 18:03:25;;;;;;;28.88;13.63;;;;;;;;;;5090660;28;20043;-65
2023/11/28 18:06:29;;;;;;;30.48;15.32;;;;;;;;;;5091049;28;20407;-65
2023/11/28 18:09:34;;;;;;;32.58;16.45;;;;;;;;;;5090437;28;20062;-66